createdAt,value
2023-01-20T00:02:07.323Z,3.47
2023-01-20T00:04:34.026Z,3.50
2023-01-20T00:07:00.775Z,4.00
2023-01-20T00:09:27.454Z,3.80
2023-01-20T00:11:54.138Z,3.43
2023-01-20T00:14:21.149Z,3.40
2023-01-20T00:16:47.850Z,3.53
2023-01-20T00:19:14.957Z,4.97
2023-01-20T00:21:42.651Z,4.53
2023-01-20T00:24:09.364Z,4.63
2023-01-20T00:26:36.041Z,4.77
2023-01-20T00:29:02.730Z,4.53
2023-01-20T00:31:31.713Z,4.97
2023-01-20T00:34:00.131Z,4.00
2023-01-20T00:36:28.783Z,4.30
2023-01-20T00:38:55.458Z,3.37
2023-01-20T00:41:22.343Z,3.80
2023-01-20T00:43:49.459Z,4.23
2023-01-20T00:46:16.964Z,3.83
2023-01-20T00:48:43.723Z,3.63
2023-01-20T00:51:11.304Z,4.27
2023-01-20T00:53:38.498Z,3.67
2023-01-20T00:56:05.942Z,8.27
2023-01-20T00:58:32.743Z,3.47
2023-01-20T01:00:59.577Z,3.70
2023-01-20T01:03:28.124Z,4.77
2023-01-20T01:05:54.924Z,3.93
2023-01-20T01:08:21.656Z,4.60
2023-01-20T01:10:48.362Z,4.93
2023-01-20T01:13:15.081Z,4.00
2023-01-20T01:15:49.671Z,3.80
2023-01-20T01:18:16.794Z,3.50
2023-01-20T01:20:44.780Z,3.60
2023-01-20T01:23:12.356Z,3.50
2023-01-20T01:25:39.171Z,3.73
2023-01-20T01:28:06.144Z,4.97
2023-01-20T01:30:32.929Z,4.63
2023-01-20T01:32:59.623Z,4.20
2023-01-20T01:35:26.368Z,4.27
2023-01-20T01:37:53.041Z,4.37
2023-01-20T01:40:20.148Z,4.80
2023-01-20T01:42:46.878Z,5.53
2023-01-20T01:45:14.053Z,4.40
2023-01-20T01:47:52.689Z,4.07
2023-01-20T01:50:32.992Z,3.40
2023-01-20T01:53:00.256Z,4.60
2023-01-20T01:55:31.129Z,4.23
2023-01-20T01:57:59.739Z,3.73
2023-01-20T02:00:26.846Z,4.93
2023-01-20T02:02:56.097Z,7.03
2023-01-20T02:05:25.621Z,5.63
2023-01-20T02:07:52.707Z,5.10
2023-01-20T02:10:19.503Z,6.53
2023-01-20T02:12:49.587Z,6.53
2023-01-20T02:15:18.268Z,5.37
2023-01-20T02:18:03.684Z,5.27
2023-01-20T02:20:42.678Z,4.53
2023-01-20T02:23:28.110Z,5.43
2023-01-20T02:25:57.660Z,3.83
2023-01-20T02:28:42.403Z,4.33
2023-01-20T02:31:29.131Z,4.10
2023-01-20T02:34:04.707Z,4.20
2023-01-20T02:36:42.172Z,4.30
2023-01-20T02:39:27.361Z,4.20
2023-01-20T02:42:06.430Z,4.77
2023-01-20T02:44:53.985Z,4.67
2023-01-20T02:47:51.839Z,4.43
2023-01-20T02:50:45.446Z,4.60
2023-01-20T02:53:14.433Z,3.63
2023-01-20T02:55:46.268Z,5.00
2023-01-20T02:58:39.473Z,5.27
2023-01-20T03:01:12.627Z,4.10
2023-01-20T03:03:43.877Z,5.27
2023-01-20T03:06:19.113Z,5.07
2023-01-20T03:08:48.287Z,4.20
2023-01-20T03:11:15.724Z,4.23
2023-01-20T03:14:01.572Z,5.07
2023-01-20T03:16:28.883Z,4.33
2023-01-20T03:18:55.986Z,4.70
2023-01-20T03:21:23.185Z,4.97
2023-01-20T03:23:53.080Z,5.10
2023-01-20T03:26:21.446Z,4.63
2023-01-20T03:28:49.423Z,4.50
2023-01-20T03:31:26.519Z,4.67
2023-01-20T03:33:57.559Z,5.23
2023-01-20T03:36:26.476Z,5.97
2023-01-20T03:38:54.667Z,4.77
2023-01-20T03:41:42.688Z,4.80
2023-01-20T03:44:40.272Z,4.70
2023-01-20T03:47:28.973Z,4.60
2023-01-20T03:50:07.559Z,4.03
2023-01-20T03:52:46.609Z,5.30
2023-01-20T03:55:28.223Z,4.70
2023-01-20T03:57:58.124Z,4.60
2023-01-20T04:00:29.713Z,4.67
2023-01-20T04:02:58.688Z,4.43
2023-01-20T04:05:27.126Z,4.20
2023-01-20T04:07:57.707Z,4.60
2023-01-20T04:10:27.193Z,3.77
2023-01-20T04:12:54.807Z,5.03
2023-01-20T04:15:23.236Z,4.60
2023-01-20T04:17:50.098Z,4.57
2023-01-20T04:20:17.126Z,5.17
2023-01-20T04:22:58.171Z,6.30
2023-01-20T04:25:28.712Z,4.50
2023-01-20T04:27:55.548Z,4.63
2023-01-20T04:30:22.255Z,5.17
2023-01-20T04:32:49.117Z,4.80
2023-01-20T04:35:18.812Z,5.00
2023-01-20T04:37:45.581Z,5.17
2023-01-20T04:40:12.923Z,5.00
2023-01-20T04:42:39.710Z,5.00
2023-01-20T04:45:06.820Z,6.83
2023-01-20T04:47:34.038Z,5.93
2023-01-20T04:50:00.956Z,5.70
2023-01-20T04:52:27.644Z,5.43
2023-01-20T04:54:54.369Z,6.27
2023-01-20T04:57:21.095Z,5.53
2023-01-20T04:59:47.772Z,4.97
2023-01-20T05:02:14.532Z,5.10
2023-01-20T05:04:41.287Z,6.80
2023-01-20T05:07:07.995Z,5.50
2023-01-20T05:09:34.732Z,5.77
2023-01-20T05:12:01.576Z,6.60
2023-01-20T05:14:28.279Z,6.40
2023-01-20T05:16:55.105Z,5.33
2023-01-20T05:19:21.797Z,5.10
2023-01-20T05:21:48.464Z,7.20
2023-01-20T05:24:15.188Z,5.63
2023-01-20T05:26:41.909Z,5.53
2023-01-20T05:29:09.197Z,4.77
2023-01-20T05:31:37.606Z,5.67
2023-01-20T05:34:05.001Z,5.27
2023-01-20T05:36:32.753Z,7.83
2023-01-20T05:38:59.419Z,6.20
2023-01-20T05:41:26.134Z,6.73
2023-01-20T05:43:53.904Z,6.37
2023-01-20T05:46:21.328Z,5.80
2023-01-20T05:48:48.159Z,8.50
2023-01-20T05:51:14.847Z,7.20
2023-01-20T05:53:41.596Z,5.67
2023-01-20T05:56:27.915Z,5.37
2023-01-20T05:59:00.817Z,5.93
2023-01-20T06:01:34.703Z,5.87
2023-01-20T06:04:01.542Z,6.83
2023-01-20T06:06:28.455Z,6.03
2023-01-20T06:08:55.196Z,6.03
2023-01-20T06:11:22.091Z,5.83
2023-01-20T06:13:49.249Z,6.63
2023-01-20T06:16:19.572Z,5.73
2023-01-20T06:18:46.305Z,5.73
2023-01-20T06:21:13.006Z,5.40
2023-01-20T06:23:40.608Z,6.57
2023-01-20T06:26:12.971Z,5.97
2023-01-20T06:28:40.481Z,7.97
2023-01-20T06:31:10.112Z,5.27
2023-01-20T06:33:37.317Z,5.60
2023-01-20T06:36:05.004Z,5.37
2023-01-20T06:38:33.173Z,6.00
2023-01-20T06:41:05.428Z,5.07
2023-01-20T06:43:33.994Z,5.83
2023-01-20T06:46:05.670Z,5.00
2023-01-20T06:48:33.348Z,5.10
2023-01-20T06:51:05.570Z,4.97
2023-01-20T06:53:32.402Z,4.30
2023-01-20T06:56:00.409Z,5.70
2023-01-20T06:58:30.011Z,6.20
2023-01-20T07:00:58.013Z,5.07
2023-01-20T07:03:24.999Z,5.33
2023-01-20T07:06:22.499Z,5.20
2023-01-20T07:08:49.172Z,5.10
2023-01-20T07:11:16.132Z,5.00
2023-01-20T07:13:43.390Z,5.20
2023-01-20T07:16:13.673Z,4.43
2023-01-20T07:18:43.330Z,4.70
2023-01-20T07:21:11.801Z,4.53
2023-01-20T07:23:38.961Z,4.73
2023-01-20T07:26:08.418Z,4.57
2023-01-20T07:28:35.460Z,5.13
2023-01-20T07:31:05.527Z,5.10
2023-01-20T07:33:32.834Z,6.03
2023-01-20T07:36:00.125Z,5.53
2023-01-20T07:38:26.863Z,5.83
2023-01-20T07:40:56.682Z,5.40
2023-01-20T07:43:23.415Z,5.47
2023-01-20T07:45:50.219Z,5.77
2023-01-20T07:48:16.959Z,6.50
2023-01-20T07:50:43.709Z,6.60
2023-01-20T07:53:10.429Z,7.17
2023-01-20T07:55:37.086Z,7.60
2023-01-20T07:58:03.837Z,8.27
2023-01-20T08:00:30.557Z,6.90
2023-01-20T08:02:57.236Z,6.90
2023-01-20T08:05:23.930Z,7.43
2023-01-20T08:07:51.671Z,7.70
2023-01-20T08:10:18.661Z,7.30
2023-01-20T08:12:45.343Z,8.53
2023-01-20T08:15:12.144Z,7.73
2023-01-20T08:17:38.840Z,8.43
2023-01-20T08:20:06.119Z,7.73
2023-01-20T08:22:34.557Z,7.30
2023-01-20T08:25:01.221Z,8.67
2023-01-20T08:27:27.930Z,6.87
2023-01-20T08:29:55.546Z,7.27
2023-01-20T08:32:22.255Z,7.03
2023-01-20T08:34:48.923Z,7.07
2023-01-20T08:37:15.621Z,8.17
2023-01-20T08:39:42.321Z,6.53
2023-01-20T08:42:09.003Z,7.63
2023-01-20T08:44:35.684Z,6.73
2023-01-20T08:47:03.120Z,6.80
2023-01-20T08:49:29.987Z,5.73
2023-01-20T08:51:56.738Z,6.20
2023-01-20T08:54:23.927Z,8.03
2023-01-20T08:56:52.190Z,6.23
2023-01-20T08:59:19.606Z,6.37
2023-01-20T09:01:46.390Z,6.37
2023-01-20T09:04:13.611Z,6.00
2023-01-20T09:06:46.184Z,6.57
2023-01-20T09:09:13.985Z,6.47
2023-01-20T09:11:41.134Z,6.23
2023-01-20T09:14:07.955Z,6.50
2023-01-20T09:16:34.662Z,5.80
2023-01-20T09:19:03.067Z,5.93
2023-01-20T09:21:29.781Z,7.73
2023-01-20T09:23:56.472Z,6.73
2023-01-20T09:26:35.289Z,5.77
2023-01-20T09:29:09.238Z,6.03
2023-01-20T09:31:44.263Z,7.23
2023-01-20T09:34:15.382Z,8.20
2023-01-20T09:36:42.133Z,9.10
2023-01-20T09:39:27.509Z,7.07
2023-01-20T09:42:12.983Z,15.70
2023-01-20T09:44:52.755Z,12.97
2023-01-20T09:47:31.191Z,12.43
2023-01-20T09:50:38.816Z,7.90
2023-01-20T09:53:17.961Z,6.40
2023-01-20T09:55:50.069Z,7.50
2023-01-20T09:58:29.697Z,7.60
2023-01-20T10:01:09.126Z,6.67
2023-01-20T10:03:50.658Z,6.97
2023-01-20T10:06:41.539Z,8.67
2023-01-20T10:09:41.146Z,7.50
2023-01-20T10:12:20.857Z,13.10
2023-01-20T10:14:58.108Z,17.83
2023-01-20T10:17:37.136Z,9.33
2023-01-20T10:20:12.834Z,7.67
2023-01-20T10:22:52.689Z,7.23
2023-01-20T10:25:22.566Z,6.67
2023-01-20T10:28:08.745Z,8.53
2023-01-20T10:30:37.298Z,6.90
2023-01-20T10:33:11.336Z,8.60
2023-01-20T10:35:43.179Z,7.20
2023-01-20T10:38:20.564Z,6.53
2023-01-20T10:40:55.616Z,5.80
2023-01-20T10:43:22.573Z,6.27
2023-01-20T10:46:12.381Z,6.33
2023-01-20T10:49:00.308Z,7.07
2023-01-20T10:51:47.416Z,5.80
2023-01-20T10:54:35.718Z,4.77
2023-01-20T10:57:04.775Z,5.10
2023-01-20T10:59:37.543Z,5.07
2023-01-20T11:02:20.628Z,3.73
2023-01-20T11:04:59.795Z,4.23
2023-01-20T11:07:28.632Z,5.93
2023-01-20T11:09:55.633Z,5.23
2023-01-20T11:12:27.109Z,6.27
2023-01-20T11:14:55.899Z,5.30
2023-01-20T11:17:22.701Z,7.47
2023-01-20T11:19:54.387Z,6.47
2023-01-20T11:22:33.976Z,5.63
2023-01-20T11:25:04.108Z,6.20
2023-01-20T11:27:51.666Z,5.73
2023-01-20T11:30:31.374Z,5.77
2023-01-20T11:33:16.322Z,6.97
2023-01-20T11:36:17.632Z,6.57
2023-01-20T11:38:46.839Z,5.60
2023-01-20T11:41:25.428Z,7.77
2023-01-20T11:43:57.679Z,8.87
2023-01-20T11:46:32.753Z,6.90
2023-01-20T11:49:24.320Z,6.73
2023-01-20T11:51:56.565Z,7.20
2023-01-20T11:54:28.560Z,6.80
2023-01-20T11:57:06.567Z,7.40
2023-01-20T11:59:36.050Z,7.50
2023-01-20T12:02:09.015Z,7.93
2023-01-20T12:04:58.756Z,8.37
2023-01-20T12:07:42.976Z,14.00
2023-01-20T12:10:41.917Z,9.67
2023-01-20T12:13:23.017Z,7.30
2023-01-20T12:15:54.665Z,7.10
2023-01-20T12:18:35.417Z,7.63
2023-01-20T12:21:10.986Z,6.70
2023-01-20T12:24:03.792Z,7.60
2023-01-20T12:26:35.357Z,7.37
2023-01-20T12:29:05.003Z,8.03
2023-01-20T12:31:32.589Z,7.23
2023-01-20T12:34:00.727Z,15.67
2023-01-20T12:36:51.830Z,9.57
2023-01-20T12:39:46.500Z,9.40
2023-01-20T12:42:13.155Z,10.57
2023-01-20T12:45:01.103Z,8.60
2023-01-20T12:48:24.639Z,9.33
2023-01-20T12:51:19.420Z,7.80
2023-01-20T12:54:46.944Z,8.87
2023-01-20T12:57:24.679Z,8.30
2023-01-20T13:00:06.586Z,9.47
2023-01-20T13:02:57.471Z,10.13
2023-01-20T13:05:45.079Z,8.37
2023-01-20T13:08:29.085Z,8.93
2023-01-20T13:11:04.555Z,9.03
2023-01-20T13:14:07.023Z,10.40
2023-01-20T13:16:48.788Z,10.50
2023-01-20T13:19:38.382Z,11.00
2023-01-20T13:22:21.126Z,12.77
2023-01-20T13:24:51.396Z,11.37
2023-01-20T13:27:27.259Z,10.50
2023-01-20T13:29:59.866Z,10.20
2023-01-20T13:32:30.829Z,11.67
2023-01-20T13:35:00.640Z,12.33
2023-01-20T13:37:33.272Z,12.37
2023-01-20T13:40:00.443Z,13.03
2023-01-20T13:42:31.694Z,12.40
2023-01-20T13:45:14.444Z,13.53
2023-01-20T13:48:02.795Z,14.40
2023-01-20T13:50:31.024Z,12.10
2023-01-20T13:52:57.713Z,15.07
2023-01-20T13:55:45.456Z,13.87
2023-01-20T13:58:33.524Z,14.30
2023-01-20T14:01:06.073Z,16.07
2023-01-20T14:03:37.694Z,13.57
2023-01-20T14:06:20.343Z,16.57
2023-01-20T14:08:51.447Z,16.03
2023-01-20T14:11:23.716Z,13.70
2023-01-20T14:13:59.879Z,12.57
2023-01-20T14:16:48.347Z,12.90
2023-01-20T14:19:27.478Z,12.27
2023-01-20T14:21:56.593Z,15.10
2023-01-20T14:24:36.527Z,11.77
2023-01-20T14:27:24.638Z,13.47
2023-01-20T14:29:53.190Z,13.07
2023-01-20T14:32:26.191Z,14.27
2023-01-20T14:34:53.971Z,13.37
2023-01-20T14:37:29.363Z,13.73
2023-01-20T14:39:59.179Z,13.33
2023-01-20T14:42:28.073Z,14.17
2023-01-20T14:44:56.876Z,15.40
2023-01-20T14:47:25.693Z,12.50
2023-01-20T14:49:53.865Z,12.80
2023-01-20T14:52:31.333Z,12.73
2023-01-20T14:54:58.140Z,14.90
2023-01-20T14:57:41.154Z,18.00
2023-01-20T15:00:24.025Z,21.67
2023-01-20T15:03:12.306Z,21.47
2023-01-20T15:05:42.330Z,15.47
2023-01-20T15:08:11.771Z,14.03
2023-01-20T15:10:39.117Z,14.40
2023-01-20T15:13:25.079Z,13.50
2023-01-20T15:15:52.016Z,14.17
2023-01-20T15:18:21.791Z,14.67
2023-01-20T15:21:03.734Z,12.93
2023-01-20T15:23:36.680Z,15.17
2023-01-20T15:26:28.159Z,15.07
2023-01-20T15:28:55.393Z,21.10
2023-01-20T15:31:22.990Z,20.27
2023-01-20T15:33:50.324Z,23.47
2023-01-20T15:36:17.048Z,22.20
2023-01-20T15:38:43.878Z,31.70
2023-01-20T15:41:14.237Z,24.37
2023-01-20T15:43:42.398Z,40.87
2023-01-20T15:46:11.621Z,61.43
2023-01-20T15:48:38.500Z,43.50
2023-01-20T15:51:07.137Z,26.50
2023-01-20T15:53:34.727Z,16.50
2023-01-20T15:56:01.899Z,19.23
2023-01-20T15:58:32.726Z,19.43
2023-01-20T16:01:00.099Z,18.97
2023-01-20T16:03:27.846Z,17.70
2023-01-20T16:05:56.057Z,20.43
2023-01-20T16:08:26.563Z,15.33
2023-01-20T16:10:53.228Z,14.80
2023-01-20T16:13:19.979Z,17.13
2023-01-20T16:15:46.855Z,15.97
2023-01-20T16:18:16.153Z,17.13
2023-01-20T16:20:44.651Z,15.00
2023-01-20T16:23:12.145Z,15.00
2023-01-20T16:25:40.169Z,16.63
2023-01-20T16:28:24.267Z,16.73
2023-01-20T16:30:57.457Z,20.63
2023-01-20T16:33:26.309Z,16.80
2023-01-20T16:35:54.881Z,17.67
2023-01-20T16:38:23.946Z,17.37
2023-01-20T16:41:04.264Z,15.50
2023-01-20T16:43:30.977Z,23.23
2023-01-20T16:45:57.902Z,18.70
2023-01-20T16:48:25.949Z,21.87
2023-01-20T16:50:53.197Z,16.23
2023-01-20T16:53:20.301Z,15.37
2023-01-20T16:55:48.427Z,18.27
2023-01-20T16:58:16.439Z,16.53
2023-01-20T17:00:43.216Z,16.40
2023-01-20T17:03:09.964Z,14.43
2023-01-20T17:05:37.075Z,13.57
2023-01-20T17:08:04.147Z,14.40
2023-01-20T17:10:32.542Z,14.63
2023-01-20T17:12:59.503Z,14.00
2023-01-20T17:15:27.065Z,17.30
2023-01-20T17:17:57.929Z,38.73
2023-01-20T17:20:26.659Z,18.83
2023-01-20T17:22:56.741Z,18.20
2023-01-20T17:25:24.109Z,15.77
2023-01-20T17:27:50.836Z,18.90
2023-01-20T17:30:17.977Z,16.67
2023-01-20T17:32:48.389Z,15.53
2023-01-20T17:35:16.271Z,13.97
2023-01-20T17:37:43.348Z,14.37
2023-01-20T17:40:11.815Z,17.70
2023-01-20T17:42:38.760Z,15.80
2023-01-20T17:45:06.028Z,15.17
2023-01-20T17:47:32.711Z,15.63
2023-01-20T17:49:59.399Z,24.90
2023-01-20T17:52:27.440Z,17.00
2023-01-20T17:54:54.151Z,15.33
2023-01-20T17:57:21.006Z,14.33
2023-01-20T17:59:47.765Z,14.37
2023-01-20T18:02:14.593Z,14.13
2023-01-20T18:04:41.295Z,18.27
2023-01-20T18:07:08.737Z,14.13
2023-01-20T18:09:36.034Z,17.90
2023-01-20T18:12:02.767Z,17.37
2023-01-20T18:14:29.491Z,15.80
2023-01-20T18:16:56.575Z,18.77
2023-01-20T18:19:23.489Z,19.53
2023-01-20T18:21:50.156Z,17.90
2023-01-20T18:24:16.872Z,19.57
2023-01-20T18:26:43.636Z,18.37
2023-01-20T18:29:15.238Z,14.73
2023-01-20T18:31:43.036Z,17.27
2023-01-20T18:34:12.272Z,15.27
2023-01-20T18:36:41.257Z,15.47
2023-01-20T18:39:13.127Z,16.17
2023-01-20T18:41:40.112Z,14.20
2023-01-20T18:44:07.322Z,15.53
2023-01-20T18:46:34.209Z,12.73
2023-01-20T18:49:01.380Z,18.23
2023-01-20T18:51:30.338Z,13.53
2023-01-20T18:54:09.610Z,15.27
2023-01-20T18:56:37.954Z,14.87
2023-01-20T18:59:06.789Z,12.97
2023-01-20T19:01:36.259Z,14.03
2023-01-20T19:04:04.452Z,14.20
2023-01-20T19:06:34.598Z,14.57
2023-01-20T19:09:01.568Z,15.83
2023-01-20T19:11:34.305Z,14.67
2023-01-20T19:14:01.089Z,13.07
2023-01-20T19:16:33.393Z,13.93
2023-01-20T19:19:02.669Z,13.60
2023-01-20T19:21:33.402Z,15.50
2023-01-20T19:24:05.868Z,14.47
2023-01-20T19:26:37.839Z,16.97
2023-01-20T19:29:06.935Z,13.93
2023-01-20T19:31:37.360Z,14.83
2023-01-20T19:34:04.695Z,16.30
2023-01-20T19:36:31.805Z,14.10
2023-01-20T19:39:00.149Z,14.20
2023-01-20T19:41:29.387Z,13.83
2023-01-20T19:43:57.832Z,14.80
2023-01-20T19:46:26.954Z,15.23
2023-01-20T19:52:02.794Z,13.83
2023-01-20T19:57:58.432Z,14.40
2023-01-20T20:00:33.778Z,13.07
2023-01-20T20:03:19.025Z,13.87
2023-01-20T20:08:50.435Z,14.13
2023-01-20T20:11:37.996Z,15.07
2023-01-20T20:14:16.882Z,13.67
2023-01-20T20:16:47.021Z,13.93
2023-01-20T20:19:30.248Z,16.57
2023-01-20T20:22:06.055Z,14.93
2023-01-20T20:24:46.870Z,15.33
2023-01-20T20:27:19.762Z,13.80
2023-01-20T20:29:59.546Z,15.37
2023-01-20T20:32:35.278Z,14.97
2023-01-20T20:35:11.057Z,17.07
2023-01-20T20:37:52.245Z,19.23
2023-01-20T20:40:30.119Z,16.70
2023-01-20T20:43:08.488Z,16.53
2023-01-20T20:45:57.107Z,19.27
2023-01-20T20:48:24.854Z,18.70
2023-01-20T20:51:19.168Z,15.87
2023-01-20T20:54:04.225Z,23.20
2023-01-20T20:56:49.060Z,15.43
2023-01-20T20:59:25.315Z,16.87
2023-01-20T21:01:58.763Z,17.23
2023-01-20T21:07:22.282Z,17.63
2023-01-20T21:10:16.825Z,20.23
2023-01-20T21:12:50.432Z,17.63
2023-01-20T21:15:23.627Z,17.23
2023-01-20T21:17:56.622Z,18.17
2023-01-20T21:20:40.319Z,17.50
2023-01-20T21:23:13.898Z,17.07
2023-01-20T21:25:49.117Z,17.33
2023-01-20T21:28:22.398Z,16.07
2023-01-20T21:31:10.045Z,21.10
2023-01-20T21:34:16.145Z,18.80
2023-01-20T21:40:02.713Z,17.63
2023-01-20T21:42:46.359Z,17.93
2023-01-20T21:49:07.171Z,18.83
2023-01-20T21:55:07.360Z,20.20
2023-01-20T21:57:38.472Z,21.83
2023-01-20T22:00:40.621Z,26.03
2023-01-20T22:03:41.968Z,20.40
2023-01-20T22:06:32.015Z,23.67
2023-01-20T22:09:04.999Z,25.00
2023-01-20T22:11:40.917Z,18.53
2023-01-20T22:14:14.079Z,19.00
2023-01-20T22:16:55.675Z,18.47
2023-01-20T22:19:28.071Z,20.30
2023-01-20T22:22:03.943Z,19.90
2023-01-20T22:24:34.202Z,21.57
2023-01-20T22:27:06.967Z,19.20
2023-01-20T22:29:42.791Z,19.53
2023-01-20T22:32:16.102Z,19.50
2023-01-20T22:34:46.934Z,18.97
2023-01-20T22:40:40.644Z,21.50
2023-01-20T22:43:45.168Z,17.73
2023-01-20T22:46:33.453Z,20.83
2023-01-20T22:49:26.382Z,19.33
2023-01-20T22:52:01.470Z,19.57
2023-01-20T22:54:39.730Z,20.17
2023-01-20T22:57:13.814Z,18.03
2023-01-20T22:59:56.513Z,18.33
2023-01-20T23:02:34.770Z,20.20
2023-01-20T23:05:18.631Z,18.10
2023-01-20T23:08:14.267Z,19.73
2023-01-20T23:10:49.414Z,19.33
2023-01-20T23:13:43.877Z,18.93
2023-01-20T23:18:59.521Z,22.50
2023-01-20T23:21:45.029Z,19.43
2023-01-20T23:24:20.068Z,22.13
2023-01-20T23:38:58.218Z,22.30
2023-01-20T23:44:52.534Z,20.00
2023-01-20T23:47:19.277Z,21.67
2023-01-20T23:49:45.972Z,19.57
2023-01-20T23:52:12.628Z,18.13
2023-01-20T23:54:39.300Z,18.97
2023-01-20T23:57:05.969Z,19.80
2023-01-20T23:59:32.641Z,20.40
